logo
Games tagged Board Game
# Game Release date
Price
Score rank
(Userscore / Metascore)
Owners
Players
Playtime (Median)
Developer(s)
Publisher(s)
1 Chaos Reborn Oct 26, 2015 $9.99N/A (N/A/85%)50,000 .. 100,0000%00:00 (00:00)Snapshot Games Inc.Snapshot Games Inc.
2 Duelyst Aug 23, 2016 N/AN/A (N/A/82%)500,000 .. 1,000,0000%00:00 (00:00)Counterplay Games Inc.BANDAI NAMCO Entertainment America
3 Antihero Jul 10, 2017 $14.99N/A (N/A/81%)20,000 .. 50,0000%00:00 (00:00)Tim ConklingVersus Evil
4 Dangerous High School Girls in Trouble! May 14, 2008 $19.99N/A (N/A/81%)50,000 .. 100,0000%00:00 (00:00)MousechiefMousechief
5 Faeria Mar 8, 2017 $19.99N/A (N/A/81%)500,000 .. 1,000,0000%00:00 (00:00)Abrakam SAVersus Evil
6 Card Hunter Jul 13, 2015 FreeN/A (N/A/80%)1,000,000 .. 2,000,0000%00:00 (00:00)Blue ManchuBlue Manchu
7 The Jackbox Party Pack 6 Oct 16, 2019 $29.99N/A (N/A/80%)100,000 .. 200,00033.33%00:07 (00:04)Jackbox Games, Inc.Jackbox Games, Inc.
8 KARDS - The WWII Card Game Apr 15, 2020 FreeN/A (N/A/80%)500,000 .. 1,000,0000%00:00 (00:00)1939 Games1939 Games
9 Hand of Fate 2 Nov 7, 2017 $29.99N/A (N/A/80%)200,000 .. 500,0000%00:00 (00:00)Defiant DevelopmentDefiant Development
10 For The King Apr 19, 2018 $19.99N/A (N/A/79%)500,000 .. 1,000,0001.96%38:11 (12:43)IronOak GamesCurve Digital
11 Dark Future: Blood Red States May 16, 2019 $24.99N/A (N/A/78%)0 .. 20,0000%00:00 (00:00)Auroch DigitalAuroch Digital
12 Hand of Fate Feb 17, 2015 $19.99N/A (N/A/78%)500,000 .. 1,000,0000%00:00 (00:00)Defiant DevelopmentDefiant Development
13 Magic: The Gathering - Duels of the Planeswalkers 2013 Jun 20, 2012 $9.99N/A (N/A/77%)200,000 .. 500,0000%00:00 (00:00)Stainless GamesWizards of the Coast LLC
14 Magic: The Gathering - Duels of the Planeswalkers 2012 Jun 15, 2011 $19.99N/A (N/A/77%)100,000 .. 200,0000%00:00 (00:00)Stainless Games LtdWizards of the Coast LLC
15 RISK: Factions Mar 8, 2011 $9.99N/A (N/A/77%)200,000 .. 500,0000%00:00 (00:00)Stainless GamesElectronic Arts
16 Greed Corp Dec 10, 2010 $9.99N/A (N/A/76%)200,000 .. 500,0000%00:00 (00:00)Vanguard GamesVanguard Entertainment Group
17 Blood Bowl 2 Sep 22, 2015 $19.99N/A (N/A/76%)500,000 .. 1,000,00020%00:08 (00:05)Cyanide StudiosFocus Home Interactive
18 Armello Sep 1, 2015 $19.99N/A (N/A/75%)500,000 .. 1,000,0000%00:00 (00:00)League of GeeksLeague of Geeks
19 Poker Night 2 Apr 26, 2013 N/AN/A (N/A/75%)500,000 .. 1,000,0000%00:00 (00:00)Telltale GamesTelltale Games
20 Gremlins, Inc. Mar 10, 2016 $5.24N/A (N/A/75%)200,000 .. 500,0000%00:00 (00:00)Alexey Bokulev, Sergei Klimov, Charlie Oscar Lima Tango Interactive EntertainmentThe Merchant Guild of Rund (Limited)
21 Mordheim: City of the Damned Nov 19, 2015 $19.99N/A (N/A/74%)200,000 .. 500,0000%00:00 (00:00)Rogue FactorFocus Home Interactive
22 Nantucket Jan 18, 2018 $17.99N/A (N/A/74%)50,000 .. 100,000100%01:15 (01:15)Picaresque StudioFish Eagle
23 Children of Zodiarcs Jul 18, 2017 $17.99N/A (N/A/73%)20,000 .. 50,0000%00:00 (00:00)Cardboard UtopiaSquare Enix
24 Blood Bowl - Legendary Edition Oct 28, 2010 $9.99N/A (N/A/73%)200,000 .. 500,0000%00:00 (00:00)Cyanide StudiosFocus Home Interactive
25 Warhammer 40,000: Regicide Sep 8, 2015 $9.99N/A (N/A/72%)200,000 .. 500,0000%00:00 (00:00)Hammerfall PublishingHammerfall Publishing
26 Space Hulk: Ascension Nov 12, 2014 N/AN/A (N/A/72%)50,000 .. 100,0000%00:00 (00:00)Full Control StudiosFull Control
27 Hitman GO: Definitive Edition Feb 23, 2016 $7.99N/A (N/A/72%)200,000 .. 500,0000%00:00 (00:00)Square Enix MontréalSquare Enix
28 Poker Night at the Inventory Nov 22, 2010 N/AN/A (N/A/71%)1,000,000 .. 2,000,0000%00:00 (00:00)Telltale GamesSoldak Entertainment
29 Cultist Simulator May 31, 2018 $19.99N/A (N/A/71%)200,000 .. 500,0000%00:00 (00:00)Weather FactoryWeather Factory
30 The Warlock of Firetop Mountain Aug 30, 2016 $19.99N/A (N/A/70%)20,000 .. 50,0000%00:00 (00:00)Tin Man GamesTin Man Games
31 WARTILE Feb 8, 2018 $19.99N/A (N/A/68%)50,000 .. 100,0000%00:00 (00:00)Playwood ProjectDeck13, WhisperGames
32 The Witcher Adventure Game Nov 27, 2014 $9.99N/A (N/A/68%)50,000 .. 100,0000%00:00 (00:00)CD PROJEKT RED, Can ExplodeCD PROJEKT RED
33 Ogre Oct 5, 2017 $24.99N/A (N/A/66%)0 .. 20,000NAN%00:00 (00:00)Auroch DigitalAuroch Digital
34 Heroes of Normandie Oct 1, 2015 $29.99N/A (N/A/65%)20,000 .. 50,0000%00:00 (00:00)Cat RabbitSlitherine Ltd.
35 Chess 2: The Sequel Aug 19, 2014 $5.99N/A (N/A/62%)20,000 .. 50,0000%00:00 (00:00)Ludeme Games, Sirlin GamesLudeme Games
36 Tharsis Jan 11, 2016 $14.99N/A (N/A/61%)100,000 .. 200,0000%00:00 (00:00)Choice ProvisionsChoice Provisions
37 Magic 2015 - Duels of the Planeswalkers Jul 16, 2014 $9.99N/A (N/A/60%)200,000 .. 500,0000%00:00 (00:00)Stainless GamesWizards of the Coast
38 Space Hulk Aug 15, 2013 N/AN/A (N/A/58%)200,000 .. 500,0000%00:00 (00:00)Full Control StudiosFull Control
39 Warhammer Quest Jan 7, 2015 $14.99N/A (N/A/55%)50,000 .. 100,0000%00:00 (00:00)Rodeo Games, TwistplayChilled Mouse
40 Talisman: Digital Edition Feb 25, 2014 $6.99N/A (N/A/51%)500,000 .. 1,000,0000%00:00 (00:00)Nomad GamesNomad Games
41 The Chronicles of Dragon Wing - Reborn Aug 15, 2017 $19.99N/A (N/A)0 .. 20,000NAN%00:00 (00:00)Dragon Wing StudioDragon Wing Studio
42 Unlock The King 3 Mar 17, 2020 $0.99N/A (N/A)0 .. 20,000NAN%00:00 (00:00)Minimol GamesMinimol Games
43 Longsword - Tabletop Tactics Jul 20, 2017 FreeN/A (N/A)0 .. 20,0000%00:00 (00:00)Zero Sum GamesIceberg Interactive
44 RISK: Global Domination Feb 19, 2020 FreeN/A (N/A)500,000 .. 1,000,0008.04%00:58 (00:41)SMG StudioSMG Studio
45 Trivia Vault: Science & History Trivia Aug 14, 2017 $9.99N/A (N/A)0 .. 20,0000%00:00 (00:00)Ripknot SystemsRipknot Systems
46 Post Scriptum CTG: Collectible Token Game Mar 12, 2020 FreeN/A (N/A)0 .. 20,000NAN%00:00 (00:00)Alien Intelligence UABAlien Intelligence UAB
47 NEOVERSE Feb 18, 2020 $19.99N/A (N/A)100,000 .. 200,0000%00:00 (00:00)Tinogames Inc.Tinogames Inc.
48 Strategy & Tactics: Dark Ages Aug 4, 2017 $14.99N/A (N/A)50,000 .. 100,0000%00:00 (00:00)HeroLabsHeroLabs
49 Labyrinth: The War on Terror Mar 12, 2020 $12.99N/A (N/A)0 .. 20,0000%00:00 (00:00)PlaydekPlaydek
50 Rento Fortune: Online Dice Board Game (大富翁) Jul 14, 2017 $4.99N/A (N/A)200,000 .. 500,0002.94%03:37 (01:12)LAN - GAMES LTDLAN - GAMES LTD
51 PHAGEBORN Online Card Game Feb 7, 2020 $14.99N/A (N/A)0 .. 20,000NAN%00:00 (00:00)Games RevoltedGames Revolted
52 1812: The Invasion of Canada Aug 4, 2017 $24.99N/A (N/A)0 .. 20,0000%00:00 (00:00)HexWar GamesHexWar Games
53 Viking Chess: Hnefatafl Mar 5, 2020 $4.99N/A (N/A)0 .. 20,000NAN%00:00 (00:00)Diamond Sky GamesRain Games
54 HexON Feb 7, 2020 $0.59N/A (N/A)0 .. 20,000NAN%00:00 (00:00)Minimol GamesMinimol Games
55 Shephy Aug 3, 2017 $4.99N/A (N/A)0 .. 20,000NAN%00:00 (00:00)Arc System WorksArc System Works
56 Chess Sudoku Mar 2, 2020 $4.99N/A (N/A)0 .. 20,0000%00:00 (00:00)Studio GoyaStudio Goya
57 Race for the Galaxy Jun 27, 2017 $6.99N/A (N/A)100,000 .. 200,000NAN%00:00 (00:00)Temple Gates GamesTemple Gates Games
58 Unlock The King 2 Jan 31, 2020 $0.59N/A (N/A)0 .. 20,000NAN%00:00 (00:00)Minimol GamesMinimol Games
59 Business Tour - Board Game with Online Multiplayer Jul 27, 2017 FreeN/A (N/A)2,000,000 .. 5,000,0003.41%06:58 (03:16)Creobit8Floor
60 登塔者们 Babel Climbers Feb 29, 2020 $9.99N/A (N/A)0 .. 20,000NAN%00:00 (00:00)NianlessNianless
61 MONOPOLY PLUS Sep 7, 2017 $14.99N/A (N/A)500,000 .. 1,000,00017.65%01:09 (01:09)Ubisoft PuneUbisoft
62 Imagination - Online Board game Jan 29, 2020 $4.99N/A (N/A)0 .. 20,000NAN%00:00 (00:00)Creobit8Floor
63 Onirim - Solitaire Card Game Jul 26, 2017 FreeN/A (N/A)50,000 .. 100,0000%00:00 (00:00)Asmodee Digital, Playsoft, Z-Man GamesAsmodee Digital
64 Blastboard Feb 28, 2020 $0.99N/A (N/A)0 .. 20,000NAN%00:00 (00:00)Enigmatic NetworkEnigmatic Network
65 Sidewords Sep 7, 2017 $4.99N/A (N/A)0 .. 20,000NAN%00:00 (00:00)Milkbag GamesMilkbag Games
66 KobberParty - Castle Explorer Mar 20, 2020 $4.99N/A (N/A)0 .. 20,000NAN%00:00 (00:00)MightyCodeDragonMightyCodeDragon
67 Armored Freedom Jul 21, 2017 $9.99N/A (N/A)0 .. 20,0000%00:00 (00:00)Killer Bees GamesKiller Bees Games
68 La Historia De Feb 25, 2020 $6.99N/A (N/A)0 .. 20,000NAN%00:00 (00:00)K26 GamesK26 Games
69 D&D Lords of Waterdeep Sep 1, 2017 $6.99N/A (N/A)50,000 .. 100,000NAN%00:00 (00:00)Playdek, Inc.Playdek, Inc.
70 Genius! Mar 18, 2020 $1.99N/A (N/A)0 .. 20,000NAN%00:00 (00:00)Hypoxanthine, ZelHypoxanthine
71 Solar Settlers Jul 21, 2017 $9.99N/A (N/A)0 .. 20,000NAN%00:00 (00:00)BrainGoodGamesBrainGoodGames
72 Monster Jaunt Feb 20, 2020 $14.99N/A (N/A)0 .. 20,000NAN%00:00 (00:00)Sketch House GamesSketch House Games
73 Gem Rush Aug 6, 2018 $9.99N/A (N/A)0 .. 20,000NAN%00:00 (00:00)Quicksilver Software, Inc.Quicksilver Software, Inc.
74 My Little Prince - a jigsaw puzzle tale Sep 16, 2020 $1.39N/A (N/A)0 .. 20,000NAN%00:00 (00:00)Mens Sana InteractiveMens Sana Interactive
75 Chess Cubed Aug 31, 2018 $9.99N/A (N/A)0 .. 20,000NAN%00:00 (00:00)Default Software LLCDefault Software LLC
76 Guardians of Graxia Nov 1, 2010 N/AN/A (N/A)50,000 .. 100,0000%00:00 (00:00)React Games
77 Posthuman: Sanctuary Jul 27, 2018 $15.99N/A (N/A)0 .. 20,000NAN%00:00 (00:00)Mighty BoxMighty Box
78 Encore Classic Puzzle & Board Games Jan 30, 2020 $19.99N/A (N/A)0 .. 20,000NAN%00:00 (00:00)webfootEncore Software LLC.
79 Mahjong Club Aug 29, 2018 $4.99N/A (N/A)20,000 .. 50,0000%00:00 (00:00)PrinceXIPrinceXI
80 Monopolist: Technological Revolution Jul 26, 2018 $1.99N/A (N/A)0 .. 20,000NAN%00:00 (00:00)UA GamesNEBOCRY
81 Memory Card Monsters Sep 15, 2020 $0.79N/A (N/A)0 .. 20,000NAN%00:00 (00:00)Memory Card GameMemory Card Game
82 Pandemic: The Board Game Aug 24, 2018 $3.99N/A (N/A)20,000 .. 50,0000%00:00 (00:00)Asmodee DigitalAsmodee Digital, Z-Man Games
83 Delve Deeper Sep 24, 2010 $4.99N/A (N/A)50,000 .. 100,0000%00:00 (00:00)Lunar GiantLunar Giant Studios
84 Isle of Skye Jul 26, 2018 $1.74N/A (N/A)0 .. 20,000NAN%00:00 (00:00)DIGIDICEDAsmodee Digital
85 The Last Bug Sep 9, 2020 $11.99N/A (N/A)0 .. 20,000NAN%00:00 (00:00)1Moby Studio1Moby Studio
86 Exodus: Proxima Centauri Aug 17, 2018 N/AN/A (N/A)0 .. 20,000NAN%00:00 (00:00)Offworld Games, LLCOffworld Games, LLC
87 Faerie Solitaire Sep 17, 2010 $1.99N/A (N/A)200,000 .. 500,0000%00:00 (00:00)SubsoapSubsoap
88 Puzzles and Board Games Mega Collection Jul 25, 2018 $6.99N/A (N/A)0 .. 20,000NAN%00:00 (00:00)Gunnar GamesGunnar Games
89 Chess Brain Sep 8, 2020 $0.99N/A (N/A)20,000 .. 50,000NAN%00:00 (00:00)CAIO FLAVIOCAIO FLAVIO
90 Not Without You Jul 26, 2018 $1.99N/A (N/A)0 .. 20,000NAN%00:00 (00:00)Adventure BeardBurnout Game Ventures
91 Money Master Sep 14, 2018 $2.99N/A (N/A)0 .. 20,000NAN%00:00 (00:00)ChaoYe LiuHappy Home Company
92 Faerie Solitaire Dire Sep 7, 2020 $9.99N/A (N/A)0 .. 20,000NAN%00:00 (00:00)SubsoapPuppygames
93 Hasbro's BATTLESHIP Aug 14, 2018 $9.99N/A (N/A)0 .. 20,000NAN%00:00 (00:00)Marmalade Game Studio LtdMarmalade Game Studio Ltd
94 Risk N/AN/A (N/A)0 .. 20,000NAN%00:00 (00:00)Sperasoft, Inc.PopCap
95 Commands & Colors: Ancients Sep 12, 2018 $19.99N/A (N/A)0 .. 20,000NAN%00:00 (00:00)HexWar GamesHexWar Games
96 Board Battlefield Aug 10, 2018 $1.99N/A (N/A)20,000 .. 50,000NAN%00:00 (00:00)Surrealscape StudiosSurrealscape Studios
97 Similo: The Card Game Sep 17, 2020 $2N/A (N/A)0 .. 20,000NAN%00:00 (00:00)Horrible GuildHorrible Guild
98 Scythe: Digital Edition Sep 5, 2018 $8.99N/A (N/A)100,000 .. 200,0000%00:00 (00:00)The Knights of UnityAsmodee Digital
99 King and Assassins Aug 8, 2018 $6.99N/A (N/A)0 .. 20,0000%00:00 (00:00)PlaysoftAsmodee Digital
100 Wingspan Sep 17, 2020 $17.99N/A (N/A)0 .. 20,000NAN%00:00 (00:00)Monster CouchMonster Couch, Stonemaier Games, indienova
101 BattleCON: Online Sep 3, 2018 FreeN/A (N/A)50,000 .. 100,000NAN%00:00 (00:00)Level 99 GamesLevel 99 Games
102 Archon Classic Nov 2, 2010 $9.99N/A (N/A)20,000 .. 50,0000%00:00 (00:00)React GamesReact Games
103 Puzzle Strike Dec 21, 2015 $14.99N/A (N/A)0 .. 20,000NAN%00:00 (00:00)Sirlin GamesSirlin Games
104 THE GAME OF LIFE Nov 3, 2015 $4.99N/A (N/A)100,000 .. 200,0000%00:00 (00:00)Marmalade Game Studio LtdMarmalade Game Studio Ltd
105 Kings of Israel Dec 21, 2015 $4.99N/A (N/A)0 .. 20,0000%00:00 (00:00)Alastair John Jack, Lance HillFunhill Games
106 The Living Dungeon Nov 2, 2015 $9.99N/A (N/A)0 .. 20,0000%00:00 (00:00)RadiationBurnRadiationBurn
107 Gigachess Dec 15, 2015 $0.99N/A (N/A)0 .. 20,0000%00:00 (00:00)Drixxel SoftDrixxel Soft
108 Battle Chess: Game of Kings Dec 11, 2015 $29.99N/A (N/A)20,000 .. 50,000NAN%00:00 (00:00)Olde Sküül, Sculptured SoftwareInterplay Entertainment Corp.
109 FreeCell Quest Oct 19, 2015 $9.99N/A (N/A)100,000 .. 200,0000%00:00 (00:00)Legend StudioLegend Studio
110 The Jackbox Party Pack 2 Oct 13, 2015 $24.99N/A (N/A)200,000 .. 500,0000%00:00 (00:00)Jackbox Games, Inc.Jackbox Games, Inc.
111 March of War: FaceOff - XL Nov 18, 2015 N/AN/A (N/A)50,000 .. 100,0000%00:00 (00:00)ISOTXISOTX
112 Nuts!: The Battle of the Bulge Feb 12, 2016 $9.99N/A (N/A)0 .. 20,0000%00:00 (00:00)HexWar GamesHexWar Games
113 Backgammon Blitz Nov 12, 2015 $3.99N/A (N/A)0 .. 20,0000%00:00 (00:00)VooFoo StudiosNomad Games
114 Retaliation: Enemy Mine Jan 22, 2016 $4.99N/A (N/A)20,000 .. 50,000NAN%00:00 (00:00)XTeam Software Solutions srlsForgotten Empires LLC, XTeam Software Solutions srls
115 Krosmaster Arena Nov 9, 2015 N/AN/A (N/A)100,000 .. 200,0000%00:00 (00:00)Ankama StudioAnkama Games
116 ePic Character Generator Nov 5, 2015 FreeN/A (N/A)200,000 .. 500,0000%00:00 (00:00)Overhead GamesOverhead Games
117 Owari Jun 16, 2017 $2.99N/A (N/A)0 .. 20,0000%00:00 (00:00)Brian FrancoBrian Franco
118 Gizmos: Steampunk Nonograms Jan 17, 2020 $4.99N/A (N/A)0 .. 20,000NAN%00:00 (00:00)Oleg SeredaOleg Sereda
119 Wars Across The World May 4, 2017 $9.99N/A (N/A)0 .. 20,000NAN%00:00 (00:00)StrategiaePlug In Digital
120 Blocks!: Julius Caesar Dec 11, 2019 $24.99N/A (N/A)0 .. 20,000NAN%00:00 (00:00)Avalon DigitalAvalon Digital
121 Pathfinder Adventures Jun 15, 2017 $9.99N/A (N/A)100,000 .. 200,0000%00:00 (00:00)Obsidian EntertainmentAsmodee Digital
122 Board Games VR Jan 12, 2020 $19.99N/A (N/A)0 .. 20,0000%00:00 (00:00)artArminartArmin
123 Catan Universe Apr 25, 2017 FreeN/A (N/A)500,000 .. 1,000,0000%00:00 (00:00)ExozetUnited Soft Media
124 Bunny Sudoku Nov 29, 2019 $2.99N/A (N/A)0 .. 20,000NAN%00:00 (00:00)DillyFrameDillyFrame
125 Lux Alliance Jun 8, 2017 $9.99N/A (N/A)0 .. 20,000NAN%00:00 (00:00)Sillysoft GamesSillysoft Games
126 Knight Solitaire Jan 1, 2020 $4.99N/A (N/A)0 .. 20,000NAN%00:00 (00:00)Creobit8floor
127 Card Creator Apr 17, 2017 $39.99N/A (N/A)0 .. 20,000NAN%00:00 (00:00)PixelattoPixelatto
128 Dream Home Nov 27, 2019 $6.99N/A (N/A)0 .. 20,000NAN%00:00 (00:00)Gspot StudiosAsmodee Digital
129 Terra Mystica Jun 8, 2017 $14.99N/A (N/A)20,000 .. 50,000NAN%00:00 (00:00)DIGIDICEDDIGIDICED
130 Princess Maker Go!Go! Princess Dec 23, 2019 $9.99N/A (N/A)0 .. 20,000NAN%00:00 (00:00)CFK Co., Ltd.CFK Co., Ltd.
131 Galactic Keep Apr 5, 2017 $9.99N/A (N/A)0 .. 20,000NAN%00:00 (00:00)Gilded Skull GamesGilded Skull Games
132 Takenoko Nov 27, 2019 $3.99N/A (N/A)0 .. 20,000NAN%00:00 (00:00)Asmodee DigitalAsmodee Digital
133 FIELD BREAKING Jun 3, 2017 $0.79N/A (N/A)0 .. 20,000NAN%00:00 (00:00)Evoluta StudioEvoluta Studio
134 Magicolors Dec 14, 2019 $1.99N/A (N/A)0 .. 20,000NAN%00:00 (00:00)Virtual Arts StudioVirtual Arts Studio
135 Castle Explorer Mar 31, 2017 $9.99N/A (N/A)0 .. 20,000NAN%00:00 (00:00)MightyCodeDragonMightyCodeDragon
136 Unlock The King Nov 20, 2019 $0.99N/A (N/A)0 .. 20,000NAN%00:00 (00:00)Minimol GamesMinimol Games
137 India Garden Jun 2, 2017 $8.99N/A (N/A)0 .. 20,000NAN%00:00 (00:00)Makivision Gamesfamilyplay
138 Knight Swap 2 Dec 13, 2019 $0.99N/A (N/A)0 .. 20,000NAN%00:00 (00:00)Minimol GamesMinimol Games
139 Chess Ultra Jun 21, 2017 $12.99N/A (N/A)100,000 .. 200,00016.67%02:41 (00:53)RipstoneRipstone
140 Munchkin: Quacked Quest Nov 19, 2019 $24.99N/A (N/A)0 .. 20,000NAN%00:00 (00:00)Asmodee DigitalAsmodee Digital
141 The Elder Scrolls: Legends May 31, 2017 FreeN/A (N/A)1,000,000 .. 2,000,0000%00:00 (00:00)Sparkypants Studios, LLCBethesda Softworks
142 Reiner Knizia Yellow & Yangtze Dec 12, 2019 $14.99N/A (N/A)0 .. 20,000NAN%00:00 (00:00)Dire WolfDire Wolf
143 Dead Exit Jun 20, 2017 $5.99N/A (N/A)0 .. 20,0000%00:00 (00:00)RadiationBurnRadiationBurn
144 1001 Jigsaw. Myths of ancient Greece (拼图) Jan 21, 2020 $4.99N/A (N/A)0 .. 20,000NAN%00:00 (00:00)Somer Games8floor
145 Ancient Go May 30, 2017 $4.99N/A (N/A)0 .. 20,000NAN%00:00 (00:00)Hart Laboratories LLCHart Laboratories LLC
146 Cat Lady - The Card Game Dec 12, 2019 $4.99N/A (N/A)0 .. 20,000NAN%00:00 (00:00)Nomad GamesNomad Games
147 Unreal Estate Jun 9, 2017 N/AN/A (N/A)0 .. 20,0000%00:00 (00:00)Afterthought GamesAfterthought Games
148 Bingo Hall Jan 21, 2020 $1.59N/A (N/A)0 .. 20,000NAN%00:00 (00:00)John VieiraJohn Vieira
149 Tank On Tank Digital - West Front May 9, 2017 $14.99N/A (N/A)0 .. 20,000NAN%00:00 (00:00)Hexdraw, Lock 'n Load PublishingLock 'n Load Publishing
150 Dragon Castle: The Board Game Dec 12, 2019 $4.04N/A (N/A)0 .. 20,000NAN%00:00 (00:00)Studio ClangoreHorrible Guild
151 Fhtagn! - Tales of the Creeping Madness May 22, 2018 $9.99N/A (N/A)0 .. 20,000NAN%00:00 (00:00)Design ImpsDesign Imps
152 Kármán line: the edge of war Aug 20, 2020 FreeN/A (N/A)20,000 .. 50,000NAN%00:00 (00:00)CASTLE BRAVOCASTLE BRAVO
153 Last Resort Island Jun 28, 2018 $8.99N/A (N/A)0 .. 20,0000%00:00 (00:00)rokaplayrokaplay
154 Alias Aug 31, 2020 $5.99N/A (N/A)0 .. 20,000NAN%00:00 (00:00)PotatoIndustriesPotatoIndustries
155 Lost Cities May 19, 2018 $9.99N/A (N/A)0 .. 20,000NAN%00:00 (00:00)BlueLine GamesBlueLine Games
156 Root Aug 20, 2020 $14.99N/A (N/A)0 .. 20,000100%02:31 (02:31)Dire WolfDire Wolf
157 QuartoⒸ Jun 27, 2018 N/AN/A (N/A)0 .. 20,000NAN%00:00 (00:00)Games-UpAsmodee Digital
158 Memory Battle Aug 31, 2020 $2.99N/A (N/A)0 .. 20,000NAN%00:00 (00:00)PankabrePankabre
159 One Deck Dungeon May 18, 2018 $9.99N/A (N/A)20,000 .. 50,000NAN%00:00 (00:00)Handelabra Games Inc.Handelabra Games Inc.
160 Touhou MONEY STOCKS SHOPS Aug 20, 2020 $4.99N/A (N/A)0 .. 20,000NAN%00:00 (00:00)ikasumiyakislringal
161 Swipe Fruit Smash Jun 25, 2018 $4.99N/A (N/A)0 .. 20,000NAN%00:00 (00:00)Fabio CunhaFabio Cunha
162 Epic Battles of History Aug 27, 2020 FreeN/A (N/A)0 .. 20,000NAN%00:00 (00:00)Frag GamesThe Dream Team DMCC
163 Ultimate Sudoku Collection May 18, 2018 FreeN/A (N/A)20,000 .. 50,0000%00:00 (00:00)Stanley LamStanley Lam
164 Othello Let's Go | 一起翻转棋 Aug 19, 2020 $1.99N/A (N/A)0 .. 20,000NAN%00:00 (00:00)Studio AmateurStudio Amateur
165 AZORIAN KINGS Jun 21, 2018 $9.99N/A (N/A)0 .. 20,0000%00:00 (00:00)Azorian, kron0s_alexey, Pavel_BalakinElina Faritovna Balakina
166 Chickamauga Battles Aug 27, 2020 $9.99N/A (N/A)0 .. 20,000NAN%00:00 (00:00)HexWar GamesHexWar Games
167 Clue/Cluedo: The Classic Mystery Game May 17, 2018 $11.99N/A (N/A)50,000 .. 100,0000%00:00 (00:00)Marmalade Game Studio LtdMarmalade Game Studio Ltd
168 Chess Knights: Viking Lands Aug 13, 2020 $2.99N/A (N/A)20,000 .. 50,000NAN%00:00 (00:00)Minimol GamesMinimol Games
169 Catan VR Jun 13, 2018 $14.99N/A (N/A)0 .. 20,0000%00:00 (00:00)Experiment 7Experiment 7
170 Modern Puzzle Aug 26, 2020 $0.99N/A (N/A)20,000 .. 50,000NAN%00:00 (00:00)Laush Dmitriy SergeevichLaush Studio
171 Radiis Jul 19, 2018 $14.99N/A (N/A)0 .. 20,000NAN%00:00 (00:00)Urban Goose GamesUrban Goose Games
172 Miracle Sudoku Aug 13, 2020 $4.99N/A (N/A)0 .. 20,000NAN%00:00 (00:00)Studio GoyaStudio Goya
173 Life's Playground Jun 12, 2018 $1.99N/A (N/A)0 .. 20,0000%00:00 (00:00)SimProse StudiosSimProse Studios
174 Roll for the Galaxy Aug 25, 2020 $14.99N/A (N/A)0 .. 20,000NAN%00:00 (00:00)Temple Gates GamesTemple Gates Games
175 Rolling in the Reef Jul 13, 2018 $7.99N/A (N/A)0 .. 20,000NAN%00:00 (00:00)BrainGoodGamesBrainGoodGames
176 All For Nought - Tic Tac Toe Sep 3, 2020 FreeN/A (N/A)0 .. 20,000NAN%00:00 (00:00)CarloCGCCarloCGC
177 Chess Knights: Shinobi Aug 21, 2020 $1.99N/A (N/A)0 .. 20,000NAN%00:00 (00:00)Minimol GamesMinimol Games
178 The Chronicles of Quiver Dick Jul 9, 2018 $2.99N/A (N/A)0 .. 20,000NAN%00:00 (00:00)Crankage GamesCrankage Games
179 On Pixels: A lights out game Sep 2, 2020 $0.99N/A (N/A)0 .. 20,000NAN%00:00 (00:00)Vacation Game StudioVacation Game Studio
180 Bouncy Butter Ball May 31, 2018 $1.99N/A (N/A)0 .. 20,000NAN%00:00 (00:00)Youthcat StudioYouthcat Studio
181 Chess++ Sep 1, 2020 $2.99N/A (N/A)0 .. 20,000NAN%00:00 (00:00)JLogical GamesJLogical Games
182 Sumerian Blood: Gilgamesh against the Gods Jul 1, 2018 $1.99N/A (N/A)0 .. 20,000NAN%00:00 (00:00)Pompi Pompi EntertainmentPompi Pompi Entertainment
183 Pathfinder Puzzle Aug 31, 2020 $2.99N/A (N/A)0 .. 20,000NAN%00:00 (00:00)MePlayItOnlineMePlayItOnline
184 Talisman: Origins May 16, 2019 $6.99N/A (N/A)0 .. 20,000NAN%00:00 (00:00)Nomad GamesNomad Games
185 President for a Day - Corruption Aug 5, 2015 $0.99N/A (N/A)0 .. 20,0000%00:00 (00:00)Serious Games InteractiveSerious Games Interactive
186 Cardlings Jun 5, 2019 $4.99N/A (N/A)0 .. 20,000NAN%00:00 (00:00)Clockwork ChilliClockwork Chilli
187 Splendor Sep 17, 2015 $3.99N/A (N/A)50,000 .. 100,00033.33%16:21 (08:10)Days of WonderDays of Wonder, Asmodee Digital
188 Happy Words May 16, 2019 $4.99N/A (N/A)20,000 .. 50,0000%00:00 (00:00)LAN - GAMES LTDLAN - GAMES LTD
189 TREBUCHET Jul 30, 2015 $5.99N/A (N/A)0 .. 20,0000%00:00 (00:00)iconical Ltd.iconical Ltd.
190 Aurora Hex - Pattern Puzzles Jun 4, 2019 $4.99N/A (N/A)0 .. 20,000NAN%00:00 (00:00)Final Game StudioFinal Game Studio
191 Simply Chess Sep 11, 2015 FreeN/A (N/A)500,000 .. 1,000,0000%00:00 (00:00)BlueLine GamesBlueLine Games
192 Dark Fantasy 2: Jigsaw Puzzle May 17, 2019 $1.99N/A (N/A)0 .. 20,000NAN%00:00 (00:00)NAISUNAISU
193 Magic Duels Jul 29, 2015 N/AN/A (N/A)2,000,000 .. 5,000,0000%00:00 (00:00)Stainless Games Ltd.Wizards of the Coast LLC
194 Four Kings One War May 30, 2019 FreeN/A (N/A)0 .. 20,000NAN%00:00 (00:00)StaplesVRStaplesVR
195 Settlers of Orion May 16, 2019 $4.99N/A (N/A)0 .. 20,000NAN%00:00 (00:00)Blue Blaze GamingBlue Blaze Gaming
196 King of Dragon Pass Jul 28, 2015 $11.99N/A (N/A)50,000 .. 100,0000%00:00 (00:00)A Sharp, LLCHeroCraft PC
197 Skat 3D Premium May 29, 2019 $14.99N/A (N/A)0 .. 20,000NAN%00:00 (00:00)BufoProjectBufoProject
198 The Last Hex May 10, 2019 $14.99N/A (N/A)0 .. 20,000NAN%00:00 (00:00)That Indie StudioThat Indie Studio
199 March of War: FaceOff - M Jul 16, 2015 N/AN/A (N/A)100,000 .. 200,0000%00:00 (00:00)ISOTXISOTX
200 Church Era May 24, 2019 $15.99N/A (N/A)0 .. 20,000NAN%00:00 (00:00)Kuang-Yu Cheng, Fan-Ting TsengKuang-Yu Cheng
201 Pretty Girls Mahjong Solitaire Aug 24, 2015 $4.99N/A (N/A)50,000 .. 100,0000%00:00 (00:00)Zoo CorporationZoo Corporation
202 Canasta 3D Premium Jul 2, 2019 $14.99N/A (N/A)0 .. 20,000NAN%00:00 (00:00)BufoProjectBufoProject
203 U-BOOT The Board Game Apr 30, 2019 FreeN/A (N/A)0 .. 20,000NAN%00:00 (00:00)Iron Wolf StudioIron Wolf Studio S.A., Phalanx (board game component)
204 Egyptian Senet Aug 21, 2015 $4.99N/A (N/A)100,000 .. 200,0000%00:00 (00:00)Ezzat StudiosEzzat Studios
205 Mahjong: Magic Chips Jun 25, 2019 $2.99N/A (N/A)0 .. 20,000NAN%00:00 (00:00)IO GamesIO Games
206 Fort Sumter: The Secession Crisis May 21, 2019 $4.99N/A (N/A)0 .. 20,000NAN%00:00 (00:00)Playdek, Inc.Playdek, Inc.
207 Anti-Opoly Aug 14, 2015 N/AN/A (N/A)0 .. 20,0000%00:00 (00:00)WebfootViva Media
208 Rummy 3D Premium Jun 24, 2019 $7.49N/A (N/A)0 .. 20,000NAN%00:00 (00:00)BufoProjectBufoProject
209 President for a Day - Floodings Aug 12, 2015 $0.99N/A (N/A)20,000 .. 50,0000%00:00 (00:00)Serious Games InteractiveSerious Games Interactive
210 Dota Underlords Jun 20, 2019 FreeN/A (N/A)5,000,000 .. 10,000,0001.99%01:46 (01:53)ValveValve
211 Reiner Knizia's The Confrontation Sep 21, 2015 N/AN/A (N/A)0 .. 20,000NAN%00:00 (00:00)Offworld Games, LLCOffworld Games, LLC
212 Quiz Night Tonight! Mar 2, 2017 $9.99N/A (N/A)0 .. 20,000NAN%00:00 (00:00)Mardonpol Inc.Mardonpol Inc.
213 Touhou Ibunseki - Ayaria Dawn: ReCreation Nov 11, 2019 $14.99N/A (N/A)0 .. 20,0000%00:00 (00:00)Team L.U.R.Id GlowTeam L.U.R.Id Glow
214 UNO Dec 8, 2016 $9.99N/A (N/A)1,000,000 .. 2,000,0004.5%01:58 (03:07)Ubisoft EntertainmentUbisoft Entertainment
215 Aeon's End Sep 17, 2019 $7.49N/A (N/A)0 .. 20,000NAN%00:00 (00:00)Handelabra Games Inc.Handelabra Games Inc.
216 Sumer Feb 15, 2017 $14.99N/A (N/A)0 .. 20,000NAN%00:00 (00:00)Studio WumpusStudio Wumpus
217 Fated Kingdom Nov 4, 2019 $9.99N/A (N/A)0 .. 20,0000%00:00 (00:00)GameLibertyGameLiberty
218 Where are my Internets? Dec 16, 2016 $2.99N/A (N/A)50,000 .. 100,0000%00:00 (00:00)Lokator StudioDNVA
219 Agricola: All Creatures Big and Small Feb 14, 2017 $6.99N/A (N/A)0 .. 20,0000%00:00 (00:00)DIGIDICEDAsmodee Digital
220 Ludo Online: Classic Multiplayer Dice Board Game Oct 30, 2019 $0.99N/A (N/A)0 .. 20,000NAN%00:00 (00:00)Cytec BG Ltd.Cytec BG Ltd.
221 iFactor Jan 9, 2016 FreeN/A (N/A)20,000 .. 50,000NAN%00:00 (00:00)10101 Software10101 Software
222 The Astonishing Game Feb 6, 2017 $2.99N/A (N/A)0 .. 20,0000%00:00 (00:00)Turbo Tape GamesTurbo Tape Games
223 Richman10 Oct 24, 2019 $13.99N/A (N/A)200,000 .. 500,0003.57%04:14 (01:24)Softstar Technology (Beijing) Co.,LtdSOFTSTAR Entertainment
224 Super Dungeon Tactics Dec 14, 2016 $9.99N/A (N/A)0 .. 20,0000%00:00 (00:00)Underbite GamesUnderbite Games
225 Nyheim Jan 31, 2017 $3.99N/A (N/A)0 .. 20,000NAN%00:00 (00:00)Happy HobgoblinHappy Hobgoblin
226 Journey of Greed Oct 23, 2019 FreeN/A (N/A)100,000 .. 200,0000%00:00 (00:00)Dird GamesX.D. Network Inc.
227 Passage 4 Dec 13, 2016 $8.99N/A (N/A)0 .. 20,000NAN%00:00 (00:00)netmin gamesnetmin games
228 Hunt: The Unknown Quarry Jan 30, 2017 FreeN/A (N/A)0 .. 20,0000%00:00 (00:00)Quicksilver Software, Inc.Quicksilver Software, Inc.
229 Knight Swap Oct 22, 2019 $0.99N/A (N/A)0 .. 20,000NAN%00:00 (00:00)Minimol GamesMinimol Games
230 Age of Rivals Mar 14, 2017 $8.99N/A (N/A)20,000 .. 50,000NAN%00:00 (00:00)Dark Inertia StudiosRoboto Games
231 Commands & Colors: The Great War Jan 19, 2017 $19.99N/A (N/A)0 .. 20,0000%00:00 (00:00)HexWar GamesHexWar Games
232 Between Two Castles - Digital Edition Nov 15, 2019 $12.99N/A (N/A)100,000 .. 200,000NAN%00:00 (00:00)Daisu GamesDaisu Games
233 Galaxy Admirals Jan 17, 2017 $1.99N/A (N/A)100,000 .. 200,0000%00:00 (00:00)Jetdogs StudiosJetdogs Studios
234 Blocks!: Richard III Oct 9, 2019 $24.99N/A (N/A)0 .. 20,000NAN%00:00 (00:00)Avalon DigitalAvalon Digital
235 Relaxing VR Games: Mahjong Mar 2, 2017 $2.99N/A (N/A)0 .. 20,000NAN%00:00 (00:00)CrazyBunchDaedalic Entertainment
236 Battleships and Carriers - Pacific War Nov 15, 2019 $12.99N/A (N/A)0 .. 20,000NAN%00:00 (00:00)Light Strategy SeriesSLS
237 Mysterium: A Psychic Clue Game Jan 12, 2017 $3N/A (N/A)50,000 .. 100,0000%00:00 (00:00)Asmodee Digital, PlaysoftAsmodee Digital
238 Shisensho Solitaire Oct 9, 2019 $0.99N/A (N/A)0 .. 20,000NAN%00:00 (00:00)Nick RamsayNick Ramsay
239 Jigsaw Puzzles: Master Artists of Old Aug 7, 2020 $3.99N/A (N/A)0 .. 20,000NAN%00:00 (00:00)Aventale GamesAventale Games
240 Dark Quest 2 Mar 6, 2018 $3.91N/A (N/A)20,000 .. 50,0000%00:00 (00:00)Brain Seal LtdBrain Seal Ltd
241 Blocks!: Hammer of the Scots Jul 20, 2020 $19.99N/A (N/A)0 .. 20,000NAN%00:00 (00:00)Avalon DigitalAvalon Digital
242 War War Aug 6, 2020 $9.99N/A (N/A)20,000 .. 50,000NAN%00:00 (00:00)Verto Studio LLCVerto Studio LLC
243 Worshippers Feb 27, 2018 $9.99N/A (N/A)0 .. 20,000NAN%00:00 (00:00)Brainwashing GamesBrainwashing Games
244 Chaos Combat Chess Jul 15, 2020 FreeN/A (N/A)20,000 .. 50,000NAN%00:00 (00:00)This Game StudioRogue Games, Inc.
245 Flash Point: Fire Rescue Mar 29, 2018 $19.99N/A (N/A)0 .. 20,000NAN%00:00 (00:00)RetroEpic SoftwareAsmodee Digital
246 Mahjong Nagomi Aug 6, 2020 $4.99N/A (N/A)0 .. 20,000NAN%00:00 (00:00)Zoo CorporationZoo Corporation
247 Sea Battle: Through the Ages Feb 19, 2018 $4.99N/A (N/A)0 .. 20,0000%00:00 (00:00)Real FightingReal Fighting
248 Viticulture Essential Edition Jul 10, 2020 $14.99N/A (N/A)0 .. 20,000NAN%00:00 (00:00)DIGIDICEDDIGIDICED
249 Through the Ages Mar 26, 2018 $15.99N/A (N/A)20,000 .. 50,0000%00:00 (00:00)CGE DigitalCGE Digital
250 Clash Memory Game Aug 2, 2020 $0.99N/A (N/A)0 .. 20,000NAN%00:00 (00:00)FI Pixelgigantumgames
251 Comrades and Barons: Solitaire of Bloody 1919 Feb 8, 2018 $4.99N/A (N/A)0 .. 20,000NAN%00:00 (00:00)Maris OzolsMaris Ozols
252 Magic Lessons in Wand Valley - jigsaw puzzle Jul 9, 2020 $1.99N/A (N/A)0 .. 20,000NAN%00:00 (00:00)Mens Sana InteractiveMens Sana Interactive
253 Grim Town: Battle Tales Mar 21, 2018 $3.99N/A (N/A)0 .. 20,0000%00:00 (00:00)GamenesisGamenesis
254 Fritz Chess 17 Steam Edition Jul 29, 2020 $59.99N/A (N/A)0 .. 20,000NAN%00:00 (00:00)ChessBase GmbHChessBase GmbH
255 Party Arena: Board Game Battler Jul 7, 2020 $4.99N/A (N/A)0 .. 20,000NAN%00:00 (00:00)Funture GamesFunture Games
256 PlayUSA Jan 30, 2018 FreeN/A (N/A)0 .. 20,000NAN%00:00 (00:00)Sebastian Havens, PapɛяGavisus Games, Gavisus
257 Spirit Island Jul 29, 2020 $24.99N/A (N/A)0 .. 20,000NAN%00:00 (00:00)Handelabra Games Inc.Handelabra Games Inc.
258 Potion Explosion May 16, 2018 $1.74N/A (N/A)0 .. 20,0000%00:00 (00:00)Studio ClangoreHorrible Guild
259 Fingers: Mini Games Jul 4, 2020 $2.99N/A (N/A)0 .. 20,000NAN%00:00 (00:00)dedm0zajdedm0zaj
260 Mahjong Classic Mar 11, 2018 $14.99N/A (N/A)0 .. 20,0000%00:00 (00:00)Tap by TapTap by Tap
261 Lost Bazaar Jul 26, 2020 FreeN/A (N/A)0 .. 20,000NAN%00:00 (00:00)Lost Bazaar developersLost Bazaar developers
262 Stormbound May 15, 2018 FreeN/A (N/A)100,000 .. 200,0000%00:00 (00:00)Paladin StudiosPaladin Studios
263 Dungeon Crusher Kiritan Aug 12, 2020 $11.99N/A (N/A)0 .. 20,000NAN%00:00 (00:00)Akamurasaki GamesAkamurasaki Games
264 Chessaria: The Tactical Adventure (Chess) Mar 8, 2018 $19.99N/A (N/A)0 .. 20,000NAN%00:00 (00:00)Pixel WizardsPixel Wizards
265 Agrou Jul 25, 2020 $11.99N/A (N/A)0 .. 20,0000%00:00 (00:00)Osmose StudioBingames
266 Tactical Mind Apr 27, 2018 $2.99N/A (N/A)0 .. 20,000NAN%00:00 (00:00)Drageus Games, Qubic GamesDrageus Games
267 Opus Ludum Aug 10, 2020 $2.99N/A (N/A)0 .. 20,000NAN%00:00 (00:00)Fabian EstebanFabian Esteban
268 Zombie Solitaire 2 Chapter 3 Mar 6, 2018 $8.99N/A (N/A)0 .. 20,000NAN%00:00 (00:00)rokaplayrokaplay
269 5D Chess With Multiverse Time Travel Jul 22, 2020 $11.99N/A (N/A)20,000 .. 50,0000%00:00 (00:00)Conor Petersen, Thunkspace, LLCThunkspace, LLC
270 Puzzle With Your Friends Apr 24, 2018 $4.99N/A (N/A)0 .. 20,000NAN%00:00 (00:00)SkyCat Games, bumblebeeSkyCat Games
271 Mighty Dungeons Mar 3, 2015 $0.99N/A (N/A)0 .. 20,0000%00:00 (00:00)Yohan Launay, Frederic GaillardLaylio Games
272 AXYOS: Battlecards Apr 22, 2019 $4.99N/A (N/A)0 .. 20,000NAN%00:00 (00:00)Axyos GamesAxyos Games
273 Tabletop Simulator Jun 5, 2015 $19.99N/A (N/A)2,000,000 .. 5,000,0005.33%06:09 (07:56)Berserk GamesBerserk Games
274 Heretic Operative Feb 18, 2019 $13.99N/A (N/A)0 .. 20,000NAN%00:00 (00:00)C Prompt GamesC Prompt Games
275 Chainsaw Warrior: Lords of the Night Feb 17, 2015 $5.99N/A (N/A)50,000 .. 100,0000%00:00 (00:00)Auroch DigitalAuroch Digital
276 Faerie Solitaire Harvest Apr 22, 2019 $9.99N/A (N/A)0 .. 20,0000%00:00 (00:00)SubsoapPuppygames
277 Yomi May 8, 2015 $14.99N/A (N/A)0 .. 20,0000%00:00 (00:00)Sirlin GamesSirlin Games
278 Hex Defense Feb 15, 2019 $7.99N/A (N/A)0 .. 20,000NAN%00:00 (00:00)PatagoniartPatagoniart
279 The Lord of the Rings: Journeys in Middle-earth Apr 18, 2019 FreeN/A (N/A)50,000 .. 100,0000%00:00 (00:00)Fantasy Flight GamesFantasy Flight Games
280 Lux Delux May 1, 2015 $4.99N/A (N/A)50,000 .. 100,0000%00:00 (00:00)Sillysoft GamesSillysoft Games
281 Evolution Board Game Feb 12, 2019 $14.99N/A (N/A)0 .. 20,00050%03:20 (03:20)North Star Digital StudiosNorth Star Games
282 Streets of Chaos Jan 23, 2015 N/AN/A (N/A)100,000 .. 200,0000%00:00 (00:00)SimProse StudiosSimProse Studios
283 Plaguepunk Justice Apr 11, 2019 $4.99N/A (N/A)0 .. 20,000NAN%00:00 (00:00)Maris OzolsMaris Ozols
284 Regimental Chess Apr 29, 2015 $0.99N/A (N/A)50,000 .. 100,0000%00:00 (00:00)Regimental Chess Dev.Regimental Chess Inc.
285 Mystic Vale Jan 31, 2019 $14.99N/A (N/A)0 .. 20,000NAN%00:00 (00:00)Nomad GamesNomad Games
286 Mahjong Pretty Girls Battle Jan 22, 2015 $14.99N/A (N/A)20,000 .. 50,0000%00:00 (00:00)Zoo CorporationZoo Corporation
287 Super Jigsaw Puzzle: Generations Apr 4, 2019 FreeN/A (N/A)0 .. 20,0000%00:00 (00:00)Flat Cat GamesFlat Cat Games
288 Paper Dungeons Mar 26, 2014 $9.99N/A (N/A)0 .. 20,0000%00:00 (00:00)Stephane Valverde, Leslie ValverdeAgent Mega
289 Trials of Fire May 7, 2019 $11.99N/A (N/A)0 .. 20,000NAN%00:00 (00:00)Whatboy GamesWhatboy Games
290 The Horus Heresy: Legions Mar 28, 2019 FreeN/A (N/A)50,000 .. 100,000NAN%00:00 (00:00)Everguild Ltd.Everguild Ltd.
291 Shadow Hunter Apr 20, 2015 FreeN/A (N/A)20,000 .. 50,0000%00:00 (00:00)Jeff TrierJeff Trier
292 Shards of Infinity May 6, 2019 $7.99N/A (N/A)0 .. 20,000NAN%00:00 (00:00)Temple Gates GamesTemple Gates Games
293 Volstead Jun 26, 2015 $0.99N/A (N/A)100,000 .. 200,0000%00:00 (00:00)NedoStudioNedoStudio
294 Galaxy Trucker: Extended Edition Mar 7, 2019 $9.99N/A (N/A)0 .. 20,000NAN%00:00 (00:00)CGE DigitalCGE Digital
295 BattleLore: Command Nov 25, 2014 $6.99N/A (N/A)0 .. 20,000NAN%00:00 (00:00)Fantasy Flight GamesFantasy Flight Publishing, Inc.
296 Precipice May 1, 2019 $7.99N/A (N/A)0 .. 20,000NAN%00:00 (00:00)LRDGames, Inc.LRDGames, Inc.
297 Mahjong Pretty Girls Battle : School Girls Edition Jun 22, 2015 $14.99N/A (N/A)20,000 .. 50,0000%00:00 (00:00)Zoo CorporationZoo Corporation
298 The Castles of Burgundy Feb 27, 2019 $14.99N/A (N/A)0 .. 20,000NAN%00:00 (00:00)DIGIDICEDDIGIDICED
299 Othello Aug 5, 2016 N/AN/A (N/A)20,000 .. 50,0000%00:00 (00:00)BlueLine GamesBlueLine Games
300 Petoons Party Apr 30, 2019 $19.99N/A (N/A)0 .. 20,000NAN%00:00 (00:00)Petoons StudioPetoons Studio
301 Fox & Flock Jun 9, 2015 $1.99N/A (N/A)0 .. 20,0000%00:00 (00:00)Smarter GamesFlying Interactive
302 The Prometheus Secret Noohra Feb 22, 2019 $14.99N/A (N/A)0 .. 20,000NAN%00:00 (00:00)Ahavah StudioAhavah Studio
303 3D Chess Dec 6, 2016 $9.99N/A (N/A)0 .. 20,0000%00:00 (00:00)bumblebeefamilyplay
304 Smash Up Oct 12, 2016 $6.99N/A (N/A)0 .. 20,000NAN%00:00 (00:00)Nomad GamesNomad Games
305 Tabletopia Nov 30, 2016 FreeN/A (N/A)50,000 .. 100,0000%00:00 (00:00)Tabletopia Inc.Tabletopia Inc.
306 1775: Rebellion Sep 29, 2016 $24.99N/A (N/A)0 .. 20,0000%00:00 (00:00)HexWar GamesHexWar Games
307 Colt Express Nov 17, 2016 $6.99N/A (N/A)0 .. 20,0000%00:00 (00:00)Asmodee Digital, Frima StudioAsmodee Digital
308 Ortus Arena, strategy board game online, FOR FREE Sep 28, 2016 FreeN/A (N/A)0 .. 20,0000%00:00 (00:00)Firebrush StudiosPlug In Digital
309 Political Animals Nov 2, 2016 $14.99N/A (N/A)0 .. 20,0000%00:00 (00:00)Squeaky WheelPositech Games
310 Eclipse: New Dawn for the Galaxy Sep 16, 2016 N/AN/A (N/A)0 .. 20,000NAN%00:00 (00:00)Big Daddy's CreationsBig Daddy's Creations
311 Drive on Moscow Oct 27, 2016 $9.99N/A (N/A)0 .. 20,0000%00:00 (00:00)Shenandoah StudioSlitherine Ltd.
312 Lew Pulsipher's Doomstar Sep 16, 2016 $9.99N/A (N/A)0 .. 20,0000%00:00 (00:00)Large Visible MachineLarge Visible Machine
313 Conflict of Heroes: Awakening the Bear May 8, 2012 $29.99N/A (N/A)0 .. 20,000NAN%00:00 (00:00)Western Civilization SoftwareSlitherine Ltd.
314 Congo Merc Dec 12, 2016 $4.99N/A (N/A)0 .. 20,0000%00:00 (00:00)Dreamwalker GamesHexWar Games
315 Galaxy of Trian Board Game Jun 30, 2016 $4.99N/A (N/A)0 .. 20,000NAN%00:00 (00:00)Grey Wizard InnovativeGrey Wizard Innovative
316 Stratego - Single Player Dec 20, 2016 $6.99N/A (N/A)0 .. 20,000NAN%00:00 (00:00)OrangeGamesOrangeGames, YoudaGames
317 The Jackbox Party Pack 3 Oct 17, 2016 $24.99N/A (N/A)500,000 .. 1,000,0004%00:01 (00:00)Jackbox Games, Inc.Jackbox Games, Inc.
318 Patchwork Dec 6, 2016 $1.74N/A (N/A)20,000 .. 50,00033.33%01:30 (00:30)DIGIDICEDAsmodee Digital
319 Delicious! Pretty Girls Mahjong Solitaire Oct 14, 2016 $0.99N/A (N/A)50,000 .. 100,0000%00:00 (00:00)Zoo CorporationZoo Corporation
320 Fantasy Lands Jun 23, 2020 FreeN/A (N/A)0 .. 20,000NAN%00:00 (00:00)José Antonio Durá OlmosJosé Antonio Durá Olmos
321 Zen Blocks - Relaxing Puzzle Board Game Dec 4, 2017 $4.99N/A (N/A)0 .. 20,000NAN%00:00 (00:00)Gazzapper GamesGazzapper Games
322 Blood Rage: Digital Edition May 27, 2020 $15.99N/A (N/A)0 .. 20,000NAN%00:00 (00:00)ExozetAsmodee Digital
323 Labirinto Jan 9, 2018 $0.99N/A (N/A)0 .. 20,0000%00:00 (00:00)Iriya72Iriya72
324 Ur Game: The Game of Ancient Gods Jun 22, 2020 $4.79N/A (N/A)0 .. 20,000NAN%00:00 (00:00)Bartoš StudioBartoš Studio
325 Star Wars: Imperial Assault - Legends of the Alliance Dec 4, 2017 FreeN/A (N/A)50,000 .. 100,0000%00:00 (00:00)Fantasy Flight GamesFantasy Flight Games
326 Causa, Voices of the Dusk May 26, 2020 FreeN/A (N/A)0 .. 20,000NAN%00:00 (00:00)Niebla GamesNiebla Games
327 Ironbound Jan 4, 2018 FreeN/A (N/A)0 .. 20,0000%00:00 (00:00)Secret Level SRLMaking Fun, Inc.
328 Tainted Grail Jun 18, 2020 $24.99N/A (N/A)20,000 .. 50,0000%00:00 (00:00)Awaken Realms DigitalAwaken Realms Digital
329 Tokaido Dec 4, 2017 $9.99N/A (N/A)0 .. 20,000NAN%00:00 (00:00)FunforgeFunforge
330 Cardnarok: Raid with Gods May 26, 2020 $19.99N/A (N/A)0 .. 20,000NAN%00:00 (00:00)Greedy Wolf StudioGreedy Wolf Studio, HeartBeat Games
331 Bohnanza The Duel Dec 27, 2017 $3.99N/A (N/A)0 .. 20,000NAN%00:00 (00:00)DIGIDICEDDIGIDICED
332 BOT.vinnik Chess: Combination Lessons Jun 18, 2020 $0.99N/A (N/A)0 .. 20,000NAN%00:00 (00:00)DeepGreen GamesDeepGreen Games
333 Carcassonne - Tiles & Tactics Nov 29, 2017 $3.99N/A (N/A)200,000 .. 500,0000%00:00 (00:00)Asmodee Digital, Frima StudioAsmodee Digital
334 Thermo Sudoku May 25, 2020 $4.99N/A (N/A)0 .. 20,0000%00:00 (00:00)Studio GoyaStudio Goya
335 Faerie Solitaire Remastered Dec 22, 2017 $9.99N/A (N/A)0 .. 20,0000%00:00 (00:00)SubsoapSubsoap
336 Libertad o Muerte! Jun 12, 2020 $24.99N/A (N/A)0 .. 20,000NAN%00:00 (00:00)Headquarter S.L.Avalon Digital
337 Burgle Bros. Nov 29, 2017 $4.99N/A (N/A)0 .. 20,000NAN%00:00 (00:00)Fowers GamesFowers Games
338 GeoLogic May 18, 2020 $4.99N/A (N/A)0 .. 20,000NAN%00:00 (00:00)Tomaz CampaTomaz Campa
339 AcChen - Tile matching the Arcade way Dec 20, 2017 $3.99N/A (N/A)0 .. 20,0000%00:00 (00:00)Stefan PreussStefan Preuss
340 Mars Power Industries: First Job Jun 9, 2020 FreeN/A (N/A)0 .. 20,000NAN%00:00 (00:00)7A Games, Rarykos7A Games, Kurki.games
341 Mighty Gemstones Feb 1, 2018 $1.99N/A (N/A)0 .. 20,0000%00:00 (00:00)Fabio CunhaFabio Cunha
342 Dungeon Solver May 18, 2020 $0.99N/A (N/A)0 .. 20,000NAN%00:00 (00:00)Crickkin Game StudioCrickkin Game Studio
343 Knockout Checkers Chamber Dec 8, 2017 $17.99N/A (N/A)0 .. 20,0000%00:00 (00:00)GamenesisGamenesis
344 Raifu Wars Jun 9, 2020 $2.99N/A (N/A)0 .. 20,000NAN%00:00 (00:00)Yotis StudiosYotis Studios
345 Legendary DXP Aug 17, 2017 FreeN/A (N/A)0 .. 20,0000%00:00 (00:00)SkyReacher EntertainmentThe Upper Deck Company
346 Cursed Mummies Jul 3, 2020 $2.99N/A (N/A)0 .. 20,000NAN%00:00 (00:00)Alex Game Dev.Garage Games
347 Heart of Crown PC Dec 12, 2017 $24.99N/A (N/A)20,000 .. 50,000NAN%00:00 (00:00)illuCalab, FLIPFLOPs, Japanime DigitalCulture Select, MangaGamer
348 Masters of Puzzle May 29, 2020 $24.99N/A (N/A)0 .. 20,000NAN%00:00 (00:00)Belleal GamesBelleal Games
349 Juicy Memory Card Jul 2, 2020 $2.99N/A (N/A)0 .. 20,000NAN%00:00 (00:00)Garage GamesGarage Games
350 Trendpoker 3D: Texas Hold'em Poker Dec 12, 2017 $9.99N/A (N/A)0 .. 20,000NAN%00:00 (00:00)BufoProjectBufoProject
351 Link Wars May 29, 2020 FreeN/A (N/A)0 .. 20,000NAN%00:00 (00:00)Lunar ChiliLunar Chili
352 Fantasy Quest Solitaire Jan 16, 2018 $8.99N/A (N/A)0 .. 20,000NAN%00:00 (00:00)rokaplayrokaplay
353 Kings' Cross Nov 27, 2018 FreeN/A (N/A)0 .. 20,000NAN%00:00 (00:00)Azorian, kron0s_alexey, Pavel_BalakinElina Faritovna Balakina
354 Northmark: Hour of the Wolf Aug 2, 2014 $9.99N/A (N/A)20,000 .. 50,0000%00:00 (00:00)Rake in GrassRake in Grass
355 Age of Fear: The Free World Jan 18, 2019 FreeN/A (N/A)100,000 .. 200,000NAN%00:00 (00:00)Leslaw SliwkoAge of Fear
356 Magnifico Dec 2, 2014 $4.99N/A (N/A)0 .. 20,0000%00:00 (00:00)MixelSlitherine Ltd.
357 CARDCORE Nov 26, 2018 N/AN/A (N/A)20,000 .. 50,000NAN%00:00 (00:00)Azorian, kron0s_alexey, Pavel_BalakinElina Faritovna Balakina
358 Grand Strategy Jan 7, 2019 FreeN/A (N/A)20,000 .. 50,000NAN%00:00 (00:00)Denizen SevenDenizen Seven
359 Indian Summer Nov 20, 2018 $6.99N/A (N/A)0 .. 20,000NAN%00:00 (00:00)DIGIDICEDDIGIDICED
360 Abalone Apr 23, 2014 $6.99N/A (N/A)20,000 .. 50,0000%00:00 (00:00)Games-Up
361 Timeflow – Time & Money Sim Jan 1, 2019 $9.99N/A (N/A)50,000 .. 100,00050%04:13 (04:13)Roman MakhmutovRoman Makhmutov
362 The Jackbox Party Pack Nov 26, 2014 $24.99N/A (N/A)200,000 .. 500,0000%00:00 (00:00)Jackbox Games, Inc.Jackbox Games, Inc.
363 Rento Fortune VR Nov 20, 2018 $9.99N/A (N/A)0 .. 20,000NAN%00:00 (00:00)LAN - GAMES LTDLAN - GAMES LTD
364 Zooloretto Nov 1, 2011 $2.99N/A (N/A)0 .. 20,0000%00:00 (00:00)Witan Game Production HouseZooloretto
365 Make A Jigsaw Puzzle Dec 28, 2018 $1.99N/A (N/A)0 .. 20,000NAN%00:00 (00:00)waci11waci11
366 WARMACHINE: Tactics Nov 20, 2014 $19.99N/A (N/A)100,000 .. 200,0000%00:00 (00:00)WhiteMoon DreamsPrivateer Press Interactive
367 Campido Oct 28, 2018 $0.99N/A (N/A)0 .. 20,000NAN%00:00 (00:00)MusclebirdMusclebird
368 Hive Nov 15, 2013 $9.99N/A (N/A)100,000 .. 200,0000%00:00 (00:00)BlueLine GamesBlueLine Games
369 ECON - Elemental Connection Dec 14, 2018 $2.99N/A (N/A)0 .. 20,000NAN%00:00 (00:00)Twelve TilesTwelve Tiles
370 Warships 3D Jan 28, 2019 $6.99N/A (N/A)0 .. 20,000NAN%00:00 (00:00)ENC GamesENC Games
371 Shards the Deckbuilder Nov 22, 2018 N/AN/A (N/A)0 .. 20,000NAN%00:00 (00:00)80Arcade80Arcade
372 Khet 2.0 Oct 1, 2014 $9.99N/A (N/A)50,000 .. 100,0000%00:00 (00:00)BlueLine GamesBlueLine Games
373 HexLab Jan 25, 2019 $2.49N/A (N/A)0 .. 20,000NAN%00:00 (00:00)Satur EntertainmentSatur Entertainment
374 Sentinels of the Multiverse Dec 22, 2014 $9.99N/A (N/A)100,000 .. 200,0000%00:00 (00:00)Handelabra Games Inc.Handelabra Games Inc.
375 The Royal Game of Ur Nov 30, 2018 $2.99N/A (N/A)0 .. 20,000NAN%00:00 (00:00)Guido OutGuido Out
376 Fritz Chess 14 Sep 22, 2014 $39.99N/A (N/A)0 .. 20,0000%00:00 (00:00)ChessBaseViva Media
377 Present for Manager Jan 22, 2019 $3.99N/A (N/A)0 .. 20,000NAN%00:00 (00:00)Three Sea RocksThree Sea Rocks
378 Ascension: Deckbuilding Game Dec 16, 2014 $3.99N/A (N/A)50,000 .. 100,0000%00:00 (00:00)Playdek, Inc.Asmodee Digital
379 Classic Card Games 3D Nov 27, 2018 $19.99N/A (N/A)0 .. 20,000NAN%00:00 (00:00)BufoProjectBufoProject
380 Bestiary of Sigillum Jan 22, 2019 $7.99N/A (N/A)0 .. 20,000NAN%00:00 (00:00)IntaglyphIntaglyph
381 Town of Salem Dec 15, 2014 $4.99N/A (N/A)1,000,000 .. 2,000,0006.76%03:12 (05:01)BlankMediaGamesBlankMediaGames
382 6 Nights Sep 8, 2016 $1.99N/A (N/A)0 .. 20,000NAN%00:00 (00:00)TopArcadeAppsTopArcadeApps
383 Cthulhu Realms Jul 1, 2016 N/AN/A (N/A)50,000 .. 100,0000%00:00 (00:00)White Wizard GamesWhite Wizard Games
384 Drawful 2 Jun 20, 2016 $9.99N/A (N/A)200,000 .. 500,0000%00:00 (00:00)Jackbox Games, Inc.Jackbox Games, Inc.
385 Tatsu Aug 29, 2016 $9.99N/A (N/A)0 .. 20,000NAN%00:00 (00:00)BlueLine GamesBlueLine Games
386 Ludo Supremo Jun 8, 2016 $1.99N/A (N/A)50,000 .. 100,0000%00:00 (00:00)EnsenaSoftEnsenaSoft
387 Le Havre: The Inland Port Aug 29, 2016 $1.74N/A (N/A)0 .. 20,0000%00:00 (00:00)DIGIDICEDAsmodee Digital
388 Descent: Road to Legend Jun 1, 2016 FreeN/A (N/A)50,000 .. 100,0000%00:00 (00:00)Fantasy Flight GamesFantasy Flight Games
389 The Dope Game May 30, 2016 $1.99N/A (N/A)0 .. 20,0000%00:00 (00:00)CoaguCo IndustriesCoaguCo Industries
390 Fantastic Checkers 2 Aug 18, 2016 $0.99N/A (N/A)20,000 .. 50,0000%00:00 (00:00)EnsenaSoftEnsenaSoft
391 Dots eXtreme Jun 12, 2016 $1.99N/A (N/A)20,000 .. 50,0000%00:00 (00:00)Starwind GamesStarwind Games
392 Mansions of Madness Aug 1, 2016 FreeN/A (N/A)100,000 .. 200,0000%00:00 (00:00)Fantasy Flight GamesFantasy Flight Games
393 Chess Knight 2 Sep 11, 2016 $2.99N/A (N/A)50,000 .. 100,0000%00:00 (00:00)EnsenaSoftEnsenaSoft
394 DICETINY: The Lord of the Dice Jul 22, 2016 $0.99N/A (N/A)0 .. 20,000NAN%00:00 (00:00)FakediceJnK
395 Pure Chess Grandmaster Edition Sep 9, 2016 $15.99N/A (N/A)0 .. 20,000NAN%00:00 (00:00)RipstoneRipstone
396 Kaboom Monsters Jul 7, 2016 $2.99N/A (N/A)20,000 .. 50,000NAN%00:00 (00:00)Broken Arms GamesBroken Arms Games
397 Evil Cult May 13, 2020 $6.74N/A (N/A)0 .. 20,000NAN%00:00 (00:00)StarInfidelStarInfidel
398 AuroraBound Deluxe Nov 1, 2017 $4.99N/A (N/A)0 .. 20,000NAN%00:00 (00:00)Final Game StudioFinal Game Studio
399 MAVR3D 八般武艺 May 7, 2020 FreeN/A (N/A)0 .. 20,000NAN%00:00 (00:00)Beijing Lanxii Play Technology Co., LtdBeijing Lanxii Play Technology Co., Ltd
400 Throne of Lies The Online Game of Deceit Sep 29, 2017 $9.99N/A (N/A)200,000 .. 500,0004.35%23:57 (07:59)Imperium42® Game Studio, Dylan Hunt, "Xblade", Elsa Hunt, "FieryElsa", Adityaraj Rukhane, "Adiart"Imperium42® Game Studio
401 Agricola Revised Edition Apr 13, 2020 $4.99N/A (N/A)0 .. 20,000NAN%00:00 (00:00)Playdek, Inc.Asmodee Digital
402 Dresden Files Cooperative Card Game Oct 30, 2017 $16.99N/A (N/A)0 .. 20,000NAN%00:00 (00:00)Hidden Achievement LLCHidden Achievement LLC
403 Gem Master May 4, 2020 $6.99N/A (N/A)0 .. 20,000NAN%00:00 (00:00)Handy Dandy GamesHandy Dandy Games
404 Ticket to Ride: First Journey Sep 27, 2017 $4.99N/A (N/A)20,000 .. 50,0000%00:00 (00:00)Payoff TechnologiesAsmodee Digital, Days of Wonder
405 Lock 'n Load Tactical Digital Apr 2, 2020 $4.99N/A (N/A)0 .. 20,000NAN%00:00 (00:00)Lock 'n Load PublishingLock 'n Load Publishing
406 The Jackbox Party Pack 4 Oct 18, 2017 $24.99N/A (N/A)100,000 .. 200,0004.35%00:49 (00:16)Jackbox Games, Inc.Jackbox Games, Inc.
407 Hnefatafl Apr 30, 2020 $5.99N/A (N/A)0 .. 20,000NAN%00:00 (00:00)Philippe SchoberPhilippe Schober
408 Warhammer 40,000: Space Wolf Sep 21, 2017 $17.99N/A (N/A)100,000 .. 200,0000%00:00 (00:00)HeroCraft PCHeroCraft PC
409 Sagrada Mar 31, 2020 $9.99N/A (N/A)0 .. 20,000NAN%00:00 (00:00)Dire WolfDire Wolf
410 Monopolka Apr 13, 2020 $0.99N/A (N/A)0 .. 20,000NAN%00:00 (00:00)Koker_007Koker_007
411 Warhammer Underworlds: Online Apr 21, 2020 $29.99N/A (N/A)0 .. 20,0000%00:00 (00:00)Steel Sky ProductionsSteel Sky Productions
412 Warbands: Bushido Sep 15, 2017 FreeN/A (N/A)100,000 .. 200,0000%00:00 (00:00)Red Unit StudiosRed Unit Studios
413 Charterstone: Digital Edition Mar 26, 2020 $18.99N/A (N/A)0 .. 20,000NAN%00:00 (00:00)Acram Digital, Mobo StudioMobo Studio
414 Bottom of the 9th Oct 11, 2017 $0.99N/A (N/A)0 .. 20,000NAN%00:00 (00:00)Handelabra Games Inc.Handelabra Games Inc.
415 Tabletop Playground Beta Apr 19, 2020 N/AN/A (N/A)0 .. 20,000NAN%00:00 (00:00)Plasticity StudiosModularity
416 Paperback: The Game Nov 8, 2017 $4.99N/A (N/A)0 .. 20,000NAN%00:00 (00:00)Mark FassettFowers Games
417 Full Animal Party Mar 23, 2020 $4.99N/A (N/A)0 .. 20,000NAN%00:00 (00:00)John L.Craftificial Studio
418 Tales from Candlekeep: Tomb of Annihilation Oct 11, 2017 $15.99N/A (N/A)200,000 .. 500,0000%00:00 (00:00)BKOM StudiosBKOM Studios
419 Mindframe Arena Apr 18, 2020 FreeN/A (N/A)0 .. 20,000NAN%00:00 (00:00)Fierce FunFierce Fun
420 Mille Bornes Nov 22, 2017 $1.24N/A (N/A)0 .. 20,000NAN%00:00 (00:00)Payoff TechnologiesAsmodee Digital
421 Tabletop Playground May 15, 2020 $14.99N/A (N/A)0 .. 20,0000%00:00 (00:00)Plasticity StudiosModularity
422 Brass Oct 11, 2017 $9.99N/A (N/A)0 .. 20,000NAN%00:00 (00:00)CubloPhalanx
423 Untitled Puzzle Simulator Apr 17, 2020 $9.99N/A (N/A)0 .. 20,000NAN%00:00 (00:00)Evgeniy PsarevEvgeniy Psarev
424 Heroes Showdown May 14, 2020 N/AN/A (N/A)50,000 .. 100,000NAN%00:00 (00:00)PATHFINDER8PATHFINDER8
425 Zombie Solitaire 2 Chapter 2 Oct 9, 2017 $8.99N/A (N/A)0 .. 20,000NAN%00:00 (00:00)rokaplayrokaplay
426 Billion Road Apr 16, 2020 $29.99N/A (N/A)0 .. 20,000NAN%00:00 (00:00)BANDAI NAMCO Entertainment Inc.Acttil, LLC.
427 Cottage Garden Nov 1, 2017 $6.99N/A (N/A)0 .. 20,000NAN%00:00 (00:00)DIGIDICEDDIGIDICED
428 Chessia Sep 20, 2018 $7.99N/A (N/A)0 .. 20,000NAN%00:00 (00:00)Hakki Ozturk, Halil Ibrahim OzturkHakki Ozturk
429 Blood Bowl: Chaos Edition Oct 11, 2012 $14.99N/A (N/A)200,000 .. 500,00014.29%01:49 (00:36)Cyanide StudiosFocus Home Interactive
430 Super X Chess Oct 24, 2018 $9.99N/A (N/A)0 .. 20,000NAN%00:00 (00:00)MlystMlyst
431 Chainsaw Warrior Oct 7, 2013 $4.99N/A (N/A)50,000 .. 100,0000%00:00 (00:00)Auroch DigitalAuroch Digital
432 Magic Nations Sep 20, 2018 $4.99N/A (N/A)0 .. 20,000NAN%00:00 (00:00)PrimeBit Games S.A.PrimeBit Games S.A.
433 Istanbul: Digital Edition Oct 18, 2018 $9.99N/A (N/A)0 .. 20,000NAN%00:00 (00:00)Mobo Studio, Acram DigitalMobo Studio
434 Pummel Party Sep 20, 2018 $14.99N/A (N/A)1,000,000 .. 2,000,0004.59%01:22 (01:50)Rebuilt GamesRebuilt Games
435 Ticket to Ride May 24, 2012 $3.99N/A (N/A)500,000 .. 1,000,0000%00:00 (00:00)Days of WonderDays of Wonder, Asmodee Digital
436 Terraforming Mars Oct 17, 2018 $8.99N/A (N/A)200,000 .. 500,0000%00:00 (00:00)Asmodee DigitalAsmodee Digital
437 Magic 2014 — Duels of the Planeswalkers Jun 26, 2013 $9.99N/A (N/A)500,000 .. 1,000,0000%00:00 (00:00)Stainless GamesWizards of the Coast LLC
438 Siberian Dawn Sep 20, 2018 FreeN/A (N/A)0 .. 20,000NAN%00:00 (00:00)WinterfloodWinterflood
439 Memoir '44 Online Oct 12, 2011 FreeN/A (N/A)200,000 .. 500,0000%00:00 (00:00)Days of WonderDays of Wonder, Asmodee Digital
440 The Jackbox Party Pack 5 Oct 17, 2018 $29.99N/A (N/A)100,000 .. 200,00025%00:40 (00:13)Jackbox Games, Inc.Jackbox Games, Inc.
441 The Game of Life Jun 10, 2013 $9.99N/A (N/A)20,000 .. 50,0000%00:00 (00:00)VirtuosPopCap
442 Dragon`s Checkers Sep 14, 2018 $0.99N/A (N/A)0 .. 20,000NAN%00:00 (00:00)iwangriwangr
443 Hex Gambit Oct 15, 2018 N/AN/A (N/A)0 .. 20,000NAN%00:00 (00:00)One Man Left StudiosOne Man Left Studios
444 Battleship Jun 10, 2013 $9.99N/A (N/A)0 .. 20,000NAN%00:00 (00:00)Sperasoft, Inc.PopCap
445 Dark Fantasy: Jigsaw Puzzle Nov 16, 2018 $1.99N/A (N/A)0 .. 20,000NAN%00:00 (00:00)NAISUNAISU
446 VR Party Club Oct 14, 2018 $19.99N/A (N/A)0 .. 20,000NAN%00:00 (00:00)callenshaw indiegamescallenshaw indiegames
447 Scrabble Jun 10, 2013 $9.99N/A (N/A)0 .. 20,000NAN%00:00 (00:00)Sperasoft, Inc.PopCap
448 Bunny Mahjo Nov 9, 2018 $2.99N/A (N/A)0 .. 20,000NAN%00:00 (00:00)DillyFrameDillyFrame
449 Small World Dec 11, 2013 $2.99N/A (N/A)100,000 .. 200,0008.33%00:14 (00:04)Days of WonderDays of Wonder, Asmodee Digital
450 Final Theory Sep 21, 2018 $9.99N/A (N/A)0 .. 20,000NAN%00:00 (00:00)MonticubeMonticube
451 7 Grand Steps: What Ancients Begat Jun 7, 2013 $19.99N/A (N/A)20,000 .. 50,0000%00:00 (00:00)MousechiefMousechief
452 Gloom: Digital Edition Oct 31, 2018 $6.99N/A (N/A)20,000 .. 50,0000%00:00 (00:00)Sky Ship StudiosAsmodee Digital
453 Elder Sign: Omens Oct 31, 2011 $5.99N/A (N/A)20,000 .. 50,0000%00:00 (00:00)Fantasy Flight Publishing, Inc.Fantasy Flight Publishing, Inc.
454 Stockpile Sep 21, 2018 $6.99N/A (N/A)0 .. 20,000NAN%00:00 (00:00)DIGIDICEDDIGIDICED
455 Love Letter Oct 24, 2018 $1.74N/A (N/A)20,000 .. 50,00016.67%00:11 (00:03)Nomad GamesAsmodee Digital
456 Talisman: Prologue Oct 14, 2013 N/AN/A (N/A)200,000 .. 500,0000%00:00 (00:00)Nomad GamesNomad Games
457 Twilight Struggle Apr 13, 2016 $9.99N/A (N/A)100,000 .. 200,0000%00:00 (00:00)Playdek, Inc.Playdek, Inc.
458 To Battle!: Hell's Crusade Jul 24, 2019 $8.99N/A (N/A)0 .. 20,000NAN%00:00 (00:00)Filthy Peasant GamesFilthy Peasant Games
459 Indian Legends Solitaire Aug 8, 2019 FreeN/A (N/A)0 .. 20,000NAN%00:00 (00:00)Elian GamesElian Games
460 Auro: A Monster-Bumping Adventure Apr 13, 2016 $6.99N/A (N/A)0 .. 20,0000%00:00 (00:00)Dinofarm GamesDinofarm Games
461 Tsuro - The Game of The Path Jul 18, 2019 $9.99N/A (N/A)0 .. 20,000NAN%00:00 (00:00)Thunderbox EntertainmentThunderbox Entertainment
462 Star Realms Mar 8, 2016 FreeN/A (N/A)100,000 .. 200,0000%00:00 (00:00)White Wizard GamesWhite Wizard Games
463 Militia 2 Aug 8, 2019 $7.99N/A (N/A)0 .. 20,000NAN%00:00 (00:00)BrainGoodGamesBrainGoodGames
464 Axes and Acres Apr 7, 2016 $9.99N/A (N/A)0 .. 20,0000%00:00 (00:00)BrainGoodGamesBrainGoodGames
465 Gloomhaven Jul 17, 2019 $16.99N/A (N/A)50,000 .. 100,0000%00:00 (00:00)Flaming Fowl StudiosAsmodee Digital
466 Mind Games Mar 4, 2016 $2.99N/A (N/A)20,000 .. 50,0000%00:00 (00:00)AK GamesRunServer
467 Jewel Puzzle Click Aug 7, 2019 $4.99N/A (N/A)0 .. 20,000NAN%00:00 (00:00)Fabio CunhaFabio Cunha
468 Age of Conquest IV Apr 5, 2016 FreeN/A (N/A)200,000 .. 500,0006.25%00:25 (00:08)Noble Master LLCNoble Master LLC
469 Supremacy 1914: World War 1 Jul 16, 2019 FreeN/A (N/A)100,000 .. 200,000NAN%00:00 (00:00)Bytro Labs GmbHBytro Labs GmbH
470 雀姬/姫麻雀 Aug 5, 2019 FreeN/A (N/A)200,000 .. 500,000NAN%00:00 (00:00)Jack TechSmile Tech
471 AltspaceVR Mar 31, 2016 FreeN/A (N/A)100,000 .. 200,0000%00:00 (00:00)AltspaceVR, Inc.AltspaceVR, Inc.
472 Them Bombs Jul 10, 2019 $10.99N/A (N/A)0 .. 20,000NAN%00:00 (00:00)Yellow DotYellow Dot
473 Talisman: The Horus Heresy Feb 22, 2016 N/AN/A (N/A)20,000 .. 50,0000%00:00 (00:00)Nomad GamesNomad Games
474 Axis & Allies 1942 Online Jul 31, 2019 $19.99N/A (N/A)100,000 .. 200,000NAN%00:00 (00:00)BeamdogBeamdog
475 XenoShyft Mar 29, 2016 $9.99N/A (N/A)0 .. 20,000NAN%00:00 (00:00)Cool Mini or NotAsmodee Digital
476 Wolflord Beta Aug 31, 2019 $5.99N/A (N/A)100,000 .. 200,0000%00:00 (00:00)LizardFactoryLizardFactory
477 Infection: Humanity's Last Gasp May 26, 2016 $9.99N/A (N/A)0 .. 20,0000%00:00 (00:00)Criss Cross GamesHexWar Games
478 Lorenzo il Magnifico Jul 30, 2019 $14.99N/A (N/A)0 .. 20,000NAN%00:00 (00:00)Studio ClangoreCranio Creations Digital
479 Space Food Truck Mar 25, 2016 $9.99N/A (N/A)20,000 .. 50,000NAN%00:00 (00:00)One Man Left StudiosOne Man Left Studios
480 RAILED Aug 30, 2019 $1.99N/A (N/A)0 .. 20,000NAN%00:00 (00:00)WarGem LLCWarGem LLC
481 IWO: Bloodbath in the Bonins May 19, 2016 $9.99N/A (N/A)0 .. 20,0000%00:00 (00:00)Guerilla Tea GamesHexWar Games
482 Raiders of the North Sea Jul 30, 2019 $14.99N/A (N/A)0 .. 20,000NAN%00:00 (00:00)Dire WolfDire Wolf
483 Victory and Glory: Napoleon Mar 17, 2016 $29.99N/A (N/A)0 .. 20,000NAN%00:00 (00:00)Electric GamesSlitherine Ltd.
484 The Lord of the Rings: Adventure Card Game - Definitive Edition Aug 29, 2019 $9.99N/A (N/A)20,000 .. 50,00050%04:57 (02:28)Antihero StudiosAsmodee Digital
485 Boss Monster Apr 27, 2016 N/AN/A (N/A)20,000 .. 50,000NAN%00:00 (00:00)Plain Concepts CorpPlain Concepts Corp
486 Code/The Werewolf Party Jul 29, 2019 FreeN/A (N/A)0 .. 20,000NAN%00:00 (00:00)WAO StudioWAO Studio
487 Techwars Online Mar 17, 2016 $4.99N/A (N/A)20,000 .. 50,0000%00:00 (00:00)Argus GamesArgus Games
488 No Time to Relax Feb 28, 2019 $13.99N/A (N/A)20,000 .. 50,0000%00:00 (00:00)Porcelain FortressPorcelain Fortress
Overview

Board Game

Games with this tag: 488
Average userscore: N/A%
Average metascore: 72.73%
Average playtime: 04:39
Total copies owned: 55,352,000
Average price: $9.73
Help

Owners: Estimated number of people owning this game. The number might be way too small for new releases and sometimes way too big for games that had free weekend event recently. Read more on About page.

Playtime: Average hours played in total per person that have actually launched this game since March 2009. This time is calculated for the whole lifetime, not for the particular year.

Average score: Average users and metacritic score for all games with this score assigned.

Average playtime: Average lifetime playtime for all games where this data is available.

Games in this genre: Self-explaining - number of games with this tag. Only inculdes games with sales data available.

Total copies owned: Refers to total copies of games with this tag acquired by users for the lifetime. Includes copies sold, downloaded for free and given out.

This number might be too small for recently released games or too big for games that had a free weekend in the last couple of months.

Graphs

Login required.

Please register or log in to see this information.

Login required.

Please register or log in to see this information.